createdAt,value
2023-02-11T00:00:25.752Z,1024.17
2023-02-11T00:01:29.982Z,1023.95
2023-02-11T00:02:34.343Z,1023.80
2023-02-11T00:03:38.517Z,1023.91
2023-02-11T00:04:42.656Z,1023.95
2023-02-11T00:05:46.713Z,1023.87
2023-02-11T00:06:50.969Z,1023.76
2023-02-11T00:07:55.157Z,1023.72
2023-02-11T00:08:59.381Z,1023.75
2023-02-11T00:10:03.589Z,1023.73
2023-02-11T00:11:07.729Z,1023.70
2023-02-11T00:12:11.933Z,1023.61
2023-02-11T00:13:16.131Z,1023.54
2023-02-11T00:14:20.434Z,1023.62
2023-02-11T00:15:24.590Z,1023.67
2023-02-11T00:16:28.892Z,1023.70
2023-02-11T00:17:32.994Z,1023.74
2023-02-11T00:18:37.199Z,1023.78
2023-02-11T00:19:41.389Z,1023.81
2023-02-11T00:20:45.616Z,1023.80
2023-02-11T00:21:50.678Z,1023.83
2023-02-11T00:22:54.526Z,1023.85
2023-02-11T00:23:58.650Z,1023.87
2023-02-11T00:25:02.846Z,1023.92
2023-02-11T00:26:07.910Z,1023.89
2023-02-11T00:27:11.632Z,1023.89
2023-02-11T00:28:15.784Z,1023.89
2023-02-11T00:29:19.994Z,1023.91
2023-02-11T00:30:24.499Z,1023.95
2023-02-11T00:31:29.576Z,1024.02
2023-02-11T00:32:33.247Z,1024.02
2023-02-11T00:33:37.453Z,1023.97
2023-02-11T00:34:41.645Z,1023.92
2023-02-11T00:35:45.772Z,1023.95
2023-02-11T00:38:17.229Z,1023.90
2023-02-11T00:39:21.446Z,1023.88
2023-02-11T00:40:25.540Z,1023.90
2023-02-11T00:41:29.761Z,1023.93
2023-02-11T00:42:33.979Z,1023.92
2023-02-11T00:43:38.131Z,1023.90
2023-02-11T00:44:42.341Z,1023.88
2023-02-11T00:45:46.692Z,1023.82
2023-02-11T00:46:50.674Z,1023.82
2023-02-11T00:47:55.902Z,1023.84
2023-02-11T00:48:59.697Z,1023.89
2023-02-11T00:50:03.776Z,1023.83
2023-02-11T00:51:08.069Z,1023.83
2023-02-11T00:52:12.139Z,1023.83
2023-02-11T00:53:16.272Z,1023.79
2023-02-11T00:54:20.490Z,1023.76
2023-02-11T00:55:25.658Z,1023.79
2023-02-11T00:56:29.577Z,1023.78
2023-02-11T00:57:33.712Z,1023.72
2023-02-11T00:58:37.947Z,1023.71
2023-02-11T00:59:42.097Z,1023.70
2023-02-11T01:00:46.229Z,1023.67
2023-02-11T01:01:50.489Z,1023.67
2023-02-11T01:02:54.669Z,1023.65
2023-02-11T01:03:58.876Z,1023.64
2023-02-11T01:05:03.139Z,1023.65
2023-02-11T01:06:07.177Z,1023.66
2023-02-11T01:07:11.456Z,1023.66
2023-02-11T01:08:15.666Z,1023.68
2023-02-11T01:09:19.889Z,1023.71
2023-02-11T01:10:24.155Z,1023.74
2023-02-11T01:11:28.264Z,1023.76
2023-02-11T01:12:34.595Z,1023.78
2023-02-11T01:13:36.681Z,1023.82
2023-02-11T01:14:40.881Z,1023.83
2023-02-11T01:15:45.126Z,1023.84
2023-02-11T01:16:49.195Z,1023.84
2023-02-11T01:17:53.485Z,1023.85
2023-02-11T01:18:57.664Z,1023.86
2023-02-11T01:20:01.772Z,1023.87
2023-02-11T01:21:06.037Z,1023.86
2023-02-11T01:22:10.131Z,1023.90
2023-02-11T01:23:14.352Z,1023.86
2023-02-11T01:24:18.436Z,1023.88
2023-02-11T01:25:22.687Z,1023.88
2023-02-11T01:26:26.904Z,1023.88
2023-02-11T01:27:30.999Z,1023.88
2023-02-11T01:28:35.395Z,1023.86
2023-02-11T01:29:39.504Z,1023.84
2023-02-11T01:30:43.610Z,1023.81
2023-02-11T01:31:47.858Z,1023.77
2023-02-11T01:32:52.045Z,1023.72
2023-02-11T01:33:56.220Z,1023.70
2023-02-11T01:35:00.427Z,1023.66
2023-02-11T01:36:04.607Z,1023.62
2023-02-11T01:37:08.958Z,1023.63
2023-02-11T01:38:13.089Z,1023.58
2023-02-11T01:39:17.316Z,1023.59
2023-02-11T01:40:21.469Z,1023.55
2023-02-11T01:41:25.774Z,1023.55
2023-02-11T01:42:29.869Z,1023.45
2023-02-11T01:43:34.096Z,1023.42
2023-02-11T01:44:38.307Z,1023.47
2023-02-11T01:45:42.412Z,1023.42
2023-02-11T01:46:46.652Z,1023.36
2023-02-11T01:47:51.749Z,1023.40
2023-02-11T01:48:55.638Z,1023.31
2023-02-11T01:49:59.783Z,1023.27
2023-02-11T01:51:03.869Z,1023.16
2023-02-11T01:52:08.140Z,1023.14
2023-02-11T01:53:12.401Z,1023.14
2023-02-11T01:54:16.648Z,1023.09
2023-02-11T01:55:20.797Z,1023.07
2023-02-11T01:56:24.999Z,1023.01
2023-02-11T01:57:29.286Z,1023.03
2023-02-11T01:58:33.527Z,1022.98
2023-02-11T01:59:37.692Z,1023.01
2023-02-11T02:00:41.874Z,1023.04
2023-02-11T02:01:46.107Z,1023.06
2023-02-11T02:02:50.275Z,1023.07
2023-02-11T02:03:54.569Z,1023.13
2023-02-11T02:04:58.652Z,1023.15
2023-02-11T02:06:02.818Z,1023.16
2023-02-11T02:07:06.991Z,1023.13
2023-02-11T02:08:11.100Z,1023.11
2023-02-11T02:09:15.352Z,1023.11
2023-02-11T02:10:19.682Z,1023.12
2023-02-11T02:11:23.728Z,1023.05
2023-02-11T02:12:28.015Z,1023.05
2023-02-11T02:13:32.059Z,1023.05
2023-02-11T02:14:36.248Z,1022.99
2023-02-11T02:15:40.610Z,1023.03
2023-02-11T02:16:44.790Z,1023.00
2023-02-11T02:17:48.946Z,1023.00
2023-02-11T02:18:53.141Z,1022.99
2023-02-11T02:19:57.414Z,1022.99
2023-02-11T02:21:01.598Z,1022.99
2023-02-11T02:22:05.794Z,1022.98
2023-02-11T02:23:10.010Z,1022.96
2023-02-11T02:24:14.385Z,1023.01
2023-02-11T02:25:18.410Z,1023.03
2023-02-11T02:26:22.556Z,1023.06
2023-02-11T02:27:26.838Z,1023.09
2023-02-11T02:28:31.105Z,1023.14
2023-02-11T02:29:35.246Z,1023.16
2023-02-11T02:30:39.555Z,1023.13
2023-02-11T02:31:43.636Z,1023.09
2023-02-11T02:32:47.887Z,1023.08
2023-02-11T02:33:52.035Z,1023.04
2023-02-11T02:34:56.136Z,1023.03
2023-02-11T02:36:00.388Z,1023.06
2023-02-11T02:37:04.606Z,1023.08
2023-02-11T02:38:08.770Z,1023.13
2023-02-11T02:39:12.993Z,1023.16
2023-02-11T02:40:17.151Z,1023.14
2023-02-11T02:41:21.348Z,1023.15
2023-02-11T02:42:25.655Z,1023.13
2023-02-11T02:43:29.853Z,1023.05
2023-02-11T02:44:34.096Z,1023.08
2023-02-11T02:45:38.294Z,1023.12
2023-02-11T02:46:42.452Z,1023.16
2023-02-11T02:47:46.692Z,1023.17
2023-02-11T02:48:50.857Z,1023.15
2023-02-11T02:49:55.049Z,1023.13
2023-02-11T02:50:59.254Z,1023.15
2023-02-11T02:52:03.485Z,1023.15
2023-02-11T02:53:07.644Z,1023.15
2023-02-11T02:54:11.814Z,1023.11
2023-02-11T02:55:16.128Z,1023.11
2023-02-11T02:56:20.303Z,1023.10
2023-02-11T02:57:24.514Z,1023.12
2023-02-11T02:58:28.682Z,1023.12
2023-02-11T02:59:32.927Z,1023.05
2023-02-11T03:00:37.061Z,1023.01
2023-02-11T03:01:41.216Z,1023.00
2023-02-11T03:02:45.472Z,1023.01
2023-02-11T03:03:49.707Z,1023.05
2023-02-11T03:04:53.892Z,1023.02
2023-02-11T03:05:58.029Z,1023.01
2023-02-11T03:07:02.217Z,1023.06
2023-02-11T03:08:06.445Z,1023.04
2023-02-11T03:09:11.624Z,1023.01
2023-02-11T03:10:14.841Z,1022.96
2023-02-11T03:11:18.988Z,1022.99
2023-02-11T03:12:23.331Z,1022.96
2023-02-11T03:13:27.525Z,1022.96
2023-02-11T03:14:31.802Z,1022.98
2023-02-11T03:15:36.082Z,1023.06
2023-02-11T03:16:40.272Z,1023.07
2023-02-11T03:17:44.432Z,1023.11
2023-02-11T03:18:48.745Z,1023.12
2023-02-11T03:19:52.954Z,1023.13
2023-02-11T03:20:57.089Z,1023.17
2023-02-11T03:22:01.382Z,1023.16
2023-02-11T03:23:05.603Z,1023.11
2023-02-11T03:24:09.813Z,1023.08
2023-02-11T03:25:14.013Z,1023.10
2023-02-11T03:26:18.224Z,1023.08
2023-02-11T03:27:22.493Z,1023.02
2023-02-11T03:28:26.679Z,1022.94
2023-02-11T03:29:30.954Z,1022.91
2023-02-11T03:30:35.140Z,1022.83
2023-02-11T03:31:39.432Z,1022.79
2023-02-11T03:32:43.561Z,1022.78
2023-02-11T03:33:47.832Z,1022.72
2023-02-11T03:34:52.009Z,1022.67
2023-02-11T03:35:56.356Z,1022.65
2023-02-11T03:37:00.544Z,1022.67
2023-02-11T03:38:04.729Z,1022.68
2023-02-11T03:39:08.810Z,1022.66
2023-02-11T03:40:13.172Z,1022.63
2023-02-11T03:41:17.443Z,1022.58
2023-02-11T03:42:21.629Z,1022.50
2023-02-11T03:43:25.808Z,1022.45
2023-02-11T03:44:30.039Z,1022.42
2023-02-11T03:45:34.289Z,1022.41
2023-02-11T03:46:38.427Z,1022.41
2023-02-11T03:47:42.631Z,1022.41
2023-02-11T03:48:46.933Z,1022.39
2023-02-11T03:49:51.064Z,1022.39
2023-02-11T03:50:55.294Z,1022.37
2023-02-11T03:51:59.612Z,1022.37
2023-02-11T03:53:03.884Z,1022.37
2023-02-11T03:54:08.101Z,1022.35
2023-02-11T03:55:12.239Z,1022.29
2023-02-11T03:56:16.399Z,1022.27
2023-02-11T03:57:20.683Z,1022.25
2023-02-11T03:58:24.840Z,1022.28
2023-02-11T03:59:28.995Z,1022.32
2023-02-11T04:00:33.211Z,1022.34
2023-02-11T04:01:37.392Z,1022.36
2023-02-11T04:02:41.593Z,1022.38
2023-02-11T04:03:45.828Z,1022.37
2023-02-11T04:04:50.121Z,1022.36
2023-02-11T04:05:54.310Z,1022.38
2023-02-11T04:06:58.491Z,1022.38
2023-02-11T04:08:02.673Z,1022.40
2023-02-11T04:09:06.916Z,1022.41
2023-02-11T04:10:11.174Z,1022.36
2023-02-11T04:11:15.397Z,1022.39
2023-02-11T04:12:19.555Z,1022.41
2023-02-11T04:13:23.867Z,1022.36
2023-02-11T04:14:28.017Z,1022.34
2023-02-11T04:15:32.203Z,1022.42
2023-02-11T04:16:36.482Z,1022.46
2023-02-11T04:17:40.659Z,1022.51
2023-02-11T04:18:44.847Z,1022.47
2023-02-11T04:19:49.005Z,1022.51
2023-02-11T04:20:53.254Z,1022.51
2023-02-11T04:21:57.436Z,1022.53
2023-02-11T04:23:01.637Z,1022.53
2023-02-11T04:24:05.786Z,1022.54
2023-02-11T04:25:09.910Z,1022.52
2023-02-11T04:26:14.246Z,1022.50
2023-02-11T04:27:18.374Z,1022.49
2023-02-11T04:28:22.658Z,1022.46
2023-02-11T04:29:26.759Z,1022.44
2023-02-11T04:30:30.972Z,1022.50
2023-02-11T04:31:35.294Z,1022.54
2023-02-11T04:32:39.554Z,1022.53
2023-02-11T04:33:43.683Z,1022.50
2023-02-11T04:34:47.890Z,1022.45
2023-02-11T04:35:52.455Z,1022.48
2023-02-11T04:36:56.264Z,1022.47
2023-02-11T04:38:00.589Z,1022.52
2023-02-11T04:39:04.824Z,1022.52
2023-02-11T04:40:08.973Z,1022.54
2023-02-11T04:41:13.043Z,1022.56
2023-02-11T04:42:17.355Z,1022.51
2023-02-11T04:43:21.438Z,1022.45
2023-02-11T04:44:25.702Z,1022.48
2023-02-11T04:45:29.890Z,1022.50
2023-02-11T04:46:33.987Z,1022.52
2023-02-11T04:47:38.278Z,1022.53
2023-02-11T04:48:42.611Z,1022.55
2023-02-11T04:49:46.734Z,1022.55
2023-02-11T04:50:50.921Z,1022.53
2023-02-11T04:51:55.100Z,1022.52
2023-02-11T04:52:59.325Z,1022.45
2023-02-11T04:54:03.560Z,1022.43
2023-02-11T04:55:07.723Z,1022.40
2023-02-11T04:56:12.019Z,1022.39
2023-02-11T04:57:16.175Z,1022.40
2023-02-11T04:58:20.399Z,1022.39
2023-02-11T04:59:24.633Z,1022.40
2023-02-11T05:00:28.834Z,1022.36
2023-02-11T05:01:33.161Z,1022.36
2023-02-11T05:02:37.289Z,1022.30
2023-02-11T05:03:41.679Z,1022.30
2023-02-11T05:04:45.665Z,1022.25
2023-02-11T05:05:50.408Z,1022.24
2023-02-11T05:06:55.231Z,1022.24
2023-02-11T05:07:58.458Z,1022.20
2023-02-11T05:09:02.725Z,1022.16
2023-02-11T05:10:06.830Z,1022.19
2023-02-11T05:11:11.086Z,1022.13
2023-02-11T05:12:15.233Z,1022.08
2023-02-11T05:13:19.492Z,1022.07
2023-02-11T05:14:23.652Z,1022.00
2023-02-11T05:15:27.885Z,1022.01
2023-02-11T05:16:32.182Z,1022.01
2023-02-11T05:17:36.334Z,1022.00
2023-02-11T05:18:40.626Z,1022.08
2023-02-11T05:19:44.831Z,1022.05
2023-02-11T05:20:49.055Z,1022.08
2023-02-11T05:22:02.570Z,1022.07
2023-02-11T05:22:57.527Z,1022.05
2023-02-11T05:24:01.701Z,1022.04
2023-02-11T05:25:05.879Z,1022.04
2023-02-11T05:26:10.100Z,1021.99
2023-02-11T05:27:14.337Z,1022.03
2023-02-11T05:28:18.602Z,1022.03
2023-02-11T05:29:22.775Z,1021.98
2023-02-11T05:30:26.831Z,1021.98
2023-02-11T05:31:31.077Z,1021.95
2023-02-11T05:32:35.414Z,1021.90
2023-02-11T05:33:39.516Z,1021.98
2023-02-11T05:34:43.768Z,1021.93
2023-02-11T05:35:48.024Z,1021.93
2023-02-11T05:36:52.120Z,1021.88
2023-02-11T05:37:56.360Z,1021.83
2023-02-11T05:39:00.590Z,1021.83
2023-02-11T05:40:04.854Z,1021.82
2023-02-11T05:41:08.980Z,1021.79
2023-02-11T05:42:13.200Z,1021.82
2023-02-11T05:43:17.492Z,1021.85
2023-02-11T05:44:21.747Z,1021.82
2023-02-11T05:45:25.994Z,1021.81
2023-02-11T05:46:30.188Z,1021.77
2023-02-11T05:47:34.406Z,1021.78
2023-02-11T05:48:38.622Z,1021.74
2023-02-11T05:49:42.822Z,1021.74
2023-02-11T05:50:47.012Z,1021.72
2023-02-11T05:51:51.180Z,1021.66
2023-02-11T05:52:55.384Z,1021.68
2023-02-11T05:53:59.563Z,1021.67
2023-02-11T05:55:03.755Z,1021.64
2023-02-11T05:56:08.061Z,1021.59
2023-02-11T05:57:12.203Z,1021.53
2023-02-11T05:58:16.397Z,1021.51
2023-02-11T05:59:20.621Z,1021.49
2023-02-11T06:00:24.820Z,1021.44
2023-02-11T06:01:29.012Z,1021.48
2023-02-11T06:02:33.373Z,1021.40
2023-02-11T06:03:37.572Z,1021.45
2023-02-11T06:04:41.779Z,1021.40
2023-02-11T06:05:45.975Z,1021.43
2023-02-11T06:06:50.150Z,1021.42
2023-02-11T06:07:54.557Z,1021.40
2023-02-11T06:08:58.721Z,1021.36
2023-02-11T06:10:02.997Z,1021.33
2023-02-11T06:11:07.174Z,1021.31
2023-02-11T06:12:11.302Z,1021.23
2023-02-11T06:13:15.564Z,1021.14
2023-02-11T06:14:19.753Z,1021.22
2023-02-11T06:15:23.969Z,1021.24
2023-02-11T06:16:28.252Z,1021.22
2023-02-11T06:17:32.347Z,1021.22
2023-02-11T06:18:36.552Z,1021.25
2023-02-11T06:19:40.761Z,1021.28
2023-02-11T06:20:44.909Z,1021.32
2023-02-11T06:21:49.156Z,1021.42
2023-02-11T06:22:53.397Z,1021.43
2023-02-11T06:23:57.637Z,1021.48
2023-02-11T06:25:02.442Z,1021.54
2023-02-11T06:26:06.069Z,1021.64
2023-02-11T06:27:10.272Z,1021.65
2023-02-11T06:28:14.589Z,1021.69
2023-02-11T06:29:18.682Z,1021.68
2023-02-11T06:30:22.809Z,1021.68
2023-02-11T06:31:27.378Z,1021.67
2023-02-11T06:32:45.943Z,1021.65
2023-02-11T06:33:35.574Z,1021.64
2023-02-11T06:34:39.695Z,1021.61
2023-02-11T06:35:43.925Z,1021.59
2023-02-11T06:36:48.181Z,1021.58
2023-02-11T06:37:52.341Z,1021.57
2023-02-11T06:38:56.551Z,1021.65
2023-02-11T06:40:00.832Z,1021.68
2023-02-11T06:41:05.010Z,1021.67
2023-02-11T06:42:09.248Z,1021.71
2023-02-11T06:43:13.469Z,1021.73
2023-02-11T06:44:17.667Z,1021.70
2023-02-11T06:45:21.886Z,1021.64
2023-02-11T06:46:26.174Z,1021.63
2023-02-11T06:47:30.426Z,1021.59
2023-02-11T06:48:34.547Z,1021.72
2023-02-11T06:49:38.865Z,1021.78
2023-02-11T06:50:43.020Z,1021.77
2023-02-11T06:51:47.341Z,1021.86
2023-02-11T06:52:51.483Z,1021.93
2023-02-11T06:53:55.675Z,1021.96
2023-02-11T06:54:59.894Z,1021.99
2023-02-11T06:56:04.082Z,1021.94
2023-02-11T06:57:08.307Z,1021.94
2023-02-11T06:58:12.618Z,1021.88
2023-02-11T06:59:16.819Z,1021.94
2023-02-11T07:00:21.049Z,1021.97
2023-02-11T07:01:25.406Z,1022.00
2023-02-11T07:02:29.492Z,1022.05
2023-02-11T07:03:33.697Z,1022.03
2023-02-11T07:04:37.875Z,1022.05
2023-02-11T07:05:42.140Z,1022.12
2023-02-11T07:06:46.324Z,1022.13
2023-02-11T07:07:50.544Z,1022.12
2023-02-11T07:08:54.877Z,1022.14
2023-02-11T07:09:59.066Z,1022.11
2023-02-11T07:11:03.267Z,1022.18
2023-02-11T07:12:07.453Z,1022.11
2023-02-11T07:13:11.671Z,1022.10
2023-02-11T07:14:15.881Z,1022.09
2023-02-11T07:15:20.109Z,1022.08
2023-02-11T07:16:24.383Z,1022.10
2023-02-11T07:17:28.540Z,1022.16
2023-02-11T07:18:32.767Z,1022.18
2023-02-11T07:19:36.999Z,1022.19
2023-02-11T07:20:41.192Z,1022.19
2023-02-11T07:21:45.386Z,1022.15
2023-02-11T07:22:49.657Z,1022.10
2023-02-11T07:23:53.864Z,1022.09
2023-02-11T07:24:58.063Z,1022.08
2023-02-11T07:26:02.227Z,1022.15
2023-02-11T07:27:06.386Z,1022.10
2023-02-11T07:28:10.650Z,1022.13
2023-02-11T07:29:14.794Z,1022.13
2023-02-11T07:30:19.039Z,1022.14
2023-02-11T07:31:23.444Z,1022.15
2023-02-11T07:32:27.442Z,1022.07
2023-02-11T07:33:31.538Z,1022.08
2023-02-11T07:34:35.865Z,1022.07
2023-02-11T07:35:42.589Z,1022.11
2023-02-11T07:36:44.235Z,1022.10
2023-02-11T07:37:48.358Z,1022.11
2023-02-11T07:38:52.761Z,1022.18
2023-02-11T07:39:56.936Z,1022.24
2023-02-11T07:41:01.231Z,1022.21
2023-02-11T07:42:05.437Z,1022.27
2023-02-11T07:43:09.794Z,1022.27
2023-02-11T07:44:13.901Z,1022.35
2023-02-11T07:45:18.106Z,1022.35
2023-02-11T07:46:22.367Z,1022.33
2023-02-11T07:47:32.468Z,1022.36
2023-02-11T07:48:35.216Z,1022.42
2023-02-11T07:49:39.397Z,1022.44
2023-02-11T07:50:43.653Z,1022.41
2023-02-11T07:51:47.823Z,1022.36
2023-02-11T07:52:52.018Z,1022.33
2023-02-11T07:53:56.256Z,1022.30
2023-02-11T07:55:02.098Z,1022.31
2023-02-11T07:56:04.690Z,1022.26
2023-02-11T07:57:08.905Z,1022.27
2023-02-11T07:58:13.200Z,1022.29
2023-02-11T07:59:17.248Z,1022.29
2023-02-11T08:00:21.535Z,1022.28
2023-02-11T08:01:25.806Z,1022.32
2023-02-11T08:02:30.091Z,1022.43
2023-02-11T08:03:34.264Z,1022.46
2023-02-11T08:04:38.449Z,1022.47
2023-02-11T08:05:42.880Z,1022.45
2023-02-11T08:06:47.036Z,1022.52
2023-02-11T08:07:51.175Z,1022.49
2023-02-11T08:08:55.477Z,1022.52
2023-02-11T08:09:59.697Z,1022.47
2023-02-11T08:11:03.908Z,1022.52
2023-02-11T08:12:08.098Z,1022.53
2023-02-11T08:13:12.328Z,1022.44
2023-02-11T08:14:16.559Z,1022.41
2023-02-11T08:15:20.766Z,1022.46
2023-02-11T08:16:24.962Z,1022.45
2023-02-11T08:17:29.223Z,1022.43
2023-02-11T08:18:33.296Z,1022.48
2023-02-11T08:19:37.576Z,1022.50
2023-02-11T08:20:41.829Z,1022.47
2023-02-11T08:21:46.065Z,1022.49
2023-02-11T08:22:50.285Z,1022.45
2023-02-11T08:23:54.480Z,1022.40
2023-02-11T08:24:58.764Z,1022.35
2023-02-11T08:26:02.895Z,1022.39
2023-02-11T08:27:07.206Z,1022.34
2023-02-11T08:28:11.386Z,1022.36
2023-02-11T08:29:15.688Z,1022.41
2023-02-11T08:30:19.910Z,1022.41
2023-02-11T08:31:24.185Z,1022.48
2023-02-11T08:32:28.289Z,1022.52
2023-02-11T08:33:32.573Z,1022.55
2023-02-11T08:34:36.826Z,1022.58
2023-02-11T08:35:41.031Z,1022.60
2023-02-11T08:36:45.227Z,1022.61
2023-02-11T08:37:49.449Z,1022.63
2023-02-11T08:38:53.677Z,1022.53
2023-02-11T08:39:57.901Z,1022.56
2023-02-11T08:41:02.110Z,1022.52
2023-02-11T08:42:06.353Z,1022.52
2023-02-11T08:43:10.548Z,1022.49
2023-02-11T08:44:14.771Z,1022.54
2023-02-11T08:45:18.969Z,1022.59
2023-02-11T08:46:23.326Z,1022.72
2023-02-11T08:47:27.450Z,1022.68
2023-02-11T08:48:31.672Z,1022.74
2023-02-11T08:49:35.893Z,1022.73
2023-02-11T08:50:40.213Z,1022.74
2023-02-11T08:51:44.406Z,1022.77
2023-02-11T08:52:48.646Z,1022.68
2023-02-11T08:53:52.905Z,1022.64
2023-02-11T08:54:57.158Z,1022.62
2023-02-11T08:56:01.401Z,1022.63
2023-02-11T08:57:05.589Z,1022.61
2023-02-11T08:58:09.880Z,1022.65
2023-02-11T08:59:14.146Z,1022.65
2023-02-11T09:00:18.434Z,1022.70
2023-02-11T09:01:23.153Z,1022.73
2023-02-11T09:02:26.858Z,1022.71
2023-02-11T09:03:30.993Z,1022.68
2023-02-11T09:04:35.235Z,1022.68
2023-02-11T09:05:39.485Z,1022.73
2023-02-11T09:06:43.697Z,1022.73
2023-02-11T09:07:47.968Z,1022.76
2023-02-11T09:08:52.176Z,1022.73
2023-02-11T09:09:56.432Z,1022.72
2023-02-11T09:11:00.648Z,1022.73
2023-02-11T09:12:04.862Z,1022.75
2023-02-11T09:13:08.948Z,1022.75
2023-02-11T09:14:13.296Z,1022.77
2023-02-11T09:15:17.498Z,1022.74
2023-02-11T09:16:21.863Z,1022.77
2023-02-11T09:17:25.983Z,1022.74
2023-02-11T09:18:30.179Z,1022.78
2023-02-11T09:19:34.450Z,1022.79
2023-02-11T09:20:38.640Z,1022.77
2023-02-11T09:21:42.967Z,1022.76
2023-02-11T09:22:47.142Z,1022.72
2023-02-11T09:23:51.367Z,1022.71
2023-02-11T09:24:55.576Z,1022.72
2023-02-11T09:25:59.753Z,1022.69
2023-02-11T09:27:04.046Z,1022.74
2023-02-11T09:28:08.316Z,1022.78
2023-02-11T09:29:12.539Z,1022.84
2023-02-11T09:30:16.807Z,1022.92
2023-02-11T09:31:21.123Z,1022.94
2023-02-11T09:32:25.225Z,1022.92
2023-02-11T09:33:29.544Z,1022.91
2023-02-11T09:34:33.797Z,1022.90
2023-02-11T09:35:37.985Z,1022.85
2023-02-11T09:36:42.225Z,1022.84
2023-02-11T09:37:46.434Z,1022.77
2023-02-11T09:38:50.733Z,1022.78
2023-02-11T09:39:54.789Z,1022.71
2023-02-11T09:40:59.201Z,1022.70
2023-02-11T09:42:03.382Z,1022.74
2023-02-11T09:43:07.562Z,1022.70
2023-02-11T09:44:11.758Z,1022.70
2023-02-11T09:45:15.997Z,1022.77
2023-02-11T09:46:20.242Z,1022.84
2023-02-11T09:47:24.399Z,1022.83
2023-02-11T09:48:28.632Z,1022.79
2023-02-11T09:49:32.870Z,1022.76
2023-02-11T09:50:37.186Z,1022.71
2023-02-11T09:51:41.455Z,1022.71
2023-02-11T09:52:45.752Z,1022.64
2023-02-11T09:53:49.895Z,1022.64
2023-02-11T09:54:54.096Z,1022.62
2023-02-11T09:55:58.306Z,1022.56
2023-02-11T09:57:02.520Z,1022.52
2023-02-11T09:58:06.740Z,1022.61
2023-02-11T09:59:10.993Z,1022.55
2023-02-11T10:00:15.194Z,1022.61
2023-02-11T10:01:21.050Z,1022.66
2023-02-11T10:02:23.685Z,1022.66
2023-02-11T10:03:42.006Z,1022.70
2023-02-11T10:04:45.061Z,1022.70
2023-02-11T10:05:49.312Z,1022.67
2023-02-11T10:06:53.364Z,1022.74
2023-02-11T10:07:57.611Z,1022.68
2023-02-11T10:09:01.882Z,1022.68
2023-02-11T10:10:06.101Z,1022.64
2023-02-11T10:11:17.574Z,1022.74
2023-02-11T10:12:14.554Z,1022.74
2023-02-11T10:13:18.774Z,1022.75
2023-02-11T10:14:23.007Z,1022.80
2023-02-11T10:15:27.451Z,1022.80
2023-02-11T10:16:31.453Z,1022.87
2023-02-11T10:17:35.692Z,1022.87
2023-02-11T10:18:39.856Z,1022.83
2023-02-11T10:19:44.109Z,1022.83
2023-02-11T10:20:48.550Z,1022.85
2023-02-11T10:21:52.696Z,1022.88
2023-02-11T10:22:56.868Z,1022.89
2023-02-11T10:24:01.096Z,1022.84
2023-02-11T10:25:05.305Z,1022.76
2023-02-11T10:26:09.570Z,1022.77
2023-02-11T10:27:13.753Z,1022.81
2023-02-11T10:28:18.193Z,1022.86
2023-02-11T10:29:22.260Z,1022.88
2023-02-11T10:30:26.604Z,1022.86
2023-02-11T10:31:30.870Z,1022.86
2023-02-11T10:32:35.027Z,1022.92
2023-02-11T10:33:39.261Z,1022.92
2023-02-11T10:34:43.476Z,1022.85
2023-02-11T10:35:47.755Z,1022.79
2023-02-11T10:36:51.860Z,1022.84
2023-02-11T10:37:56.117Z,1022.94
2023-02-11T10:39:00.341Z,1022.98
2023-02-11T10:40:04.569Z,1023.06
2023-02-11T10:41:08.808Z,1023.16
2023-02-11T10:42:13.063Z,1023.16
2023-02-11T10:43:17.287Z,1023.17
2023-02-11T10:44:21.544Z,1023.22
2023-02-11T10:45:25.791Z,1023.28
2023-02-11T10:46:30.058Z,1023.25
2023-02-11T10:47:34.077Z,1023.27
2023-02-11T10:48:38.386Z,1023.27
2023-02-11T10:49:42.654Z,1023.29
2023-02-11T10:50:46.959Z,1023.23
2023-02-11T10:51:51.161Z,1023.26
2023-02-11T10:52:55.359Z,1023.23
2023-02-11T10:53:59.725Z,1023.22
2023-02-11T10:55:03.899Z,1023.17
2023-02-11T10:56:14.077Z,1023.16
2023-02-11T10:57:17.787Z,1023.12
2023-02-11T10:58:21.603Z,1023.15
2023-02-11T10:59:25.913Z,1023.15
2023-02-11T11:00:30.069Z,1023.13
2023-02-11T11:01:34.459Z,1023.16
2023-02-11T11:02:38.544Z,1023.14
2023-02-11T11:03:42.798Z,1023.07
2023-02-11T11:04:46.984Z,1023.07
2023-02-11T11:05:51.202Z,1023.13
2023-02-11T11:06:55.471Z,1023.10
2023-02-11T11:07:59.773Z,1023.12
2023-02-11T11:09:18.094Z,1023.14
2023-02-11T11:10:21.070Z,1023.21
2023-02-11T11:11:25.268Z,1023.26
2023-02-11T11:12:29.588Z,1023.25
2023-02-11T11:13:47.767Z,1023.32
2023-02-11T11:14:50.792Z,1023.36
2023-02-11T11:15:54.940Z,1023.35
2023-02-11T11:16:59.169Z,1023.34
2023-02-11T11:18:20.263Z,1023.35
2023-02-11T11:19:07.766Z,1023.31
2023-02-11T11:20:11.939Z,1023.23
2023-02-11T11:21:16.186Z,1023.27
2023-02-11T11:22:20.322Z,1023.38
2023-02-11T11:23:24.591Z,1023.31
2023-02-11T11:24:28.846Z,1023.41
2023-02-11T11:25:32.979Z,1023.40
2023-02-11T11:26:37.371Z,1023.40
2023-02-11T11:27:41.552Z,1023.41
2023-02-11T11:28:45.668Z,1023.38
2023-02-11T11:29:49.931Z,1023.34
2023-02-11T11:30:54.725Z,1023.32
2023-02-11T11:31:58.539Z,1023.29
2023-02-11T11:33:02.684Z,1023.30
2023-02-11T11:34:06.919Z,1023.26
2023-02-11T11:35:11.170Z,1023.24
2023-02-11T11:36:15.386Z,1023.21
2023-02-11T11:37:19.741Z,1023.28
2023-02-11T11:38:23.943Z,1023.34
2023-02-11T11:39:28.188Z,1023.29
2023-02-11T11:40:32.542Z,1023.29
2023-02-11T11:41:36.717Z,1023.30
2023-02-11T11:42:40.944Z,1023.25
2023-02-11T11:43:45.170Z,1023.34
2023-02-11T11:44:49.405Z,1023.32
2023-02-11T11:45:53.622Z,1023.36
2023-02-11T11:46:57.926Z,1023.39
2023-02-11T11:48:02.218Z,1023.43
2023-02-11T11:49:06.447Z,1023.43
2023-02-11T11:50:10.607Z,1023.43
2023-02-11T11:51:14.914Z,1023.48
2023-02-11T11:52:20.006Z,1023.52
2023-02-11T11:53:23.850Z,1023.56
2023-02-11T11:54:42.116Z,1023.54
2023-02-11T11:55:45.080Z,1023.54
2023-02-11T11:56:49.264Z,1023.53
2023-02-11T11:57:53.466Z,1023.55
2023-02-11T11:58:57.773Z,1023.54
2023-02-11T12:00:01.826Z,1023.53
2023-02-11T12:01:06.093Z,1023.51
2023-02-11T12:02:10.434Z,1023.51
2023-02-11T12:03:14.545Z,1023.54
2023-02-11T12:04:18.820Z,1023.52
2023-02-11T12:05:22.907Z,1023.45
2023-02-11T12:06:27.347Z,1023.45
2023-02-11T12:07:31.591Z,1023.47
2023-02-11T12:08:35.759Z,1023.51
2023-02-11T12:09:40.101Z,1023.51
2023-02-11T12:10:44.371Z,1023.59
2023-02-11T12:11:48.599Z,1023.66
2023-02-11T12:12:52.802Z,1023.63
2023-02-11T12:13:57.135Z,1023.65
2023-02-11T12:15:01.420Z,1023.63
2023-02-11T12:16:05.610Z,1023.65
2023-02-11T12:17:09.674Z,1023.65
2023-02-11T12:18:14.073Z,1023.64
2023-02-11T12:19:18.291Z,1023.71
2023-02-11T12:20:22.505Z,1023.69
2023-02-11T12:21:26.690Z,1023.68
2023-02-11T12:22:30.856Z,1023.63
2023-02-11T12:23:35.093Z,1023.68
2023-02-11T12:24:39.185Z,1023.64
2023-02-11T12:25:43.363Z,1023.61
2023-02-11T12:26:47.758Z,1023.64
2023-02-11T12:27:51.981Z,1023.67
2023-02-11T12:28:56.208Z,1023.68
2023-02-11T12:30:00.476Z,1023.67
2023-02-11T12:31:04.909Z,1023.67
2023-02-11T12:32:08.985Z,1023.70
2023-02-11T12:33:13.161Z,1023.73
2023-02-11T12:34:17.310Z,1023.76
2023-02-11T12:35:21.709Z,1023.76
2023-02-11T12:36:25.888Z,1023.83
2023-02-11T12:37:30.114Z,1023.79
2023-02-11T12:38:34.384Z,1023.81
2023-02-11T12:39:38.664Z,1023.80
2023-02-11T12:40:42.924Z,1023.79
2023-02-11T12:41:47.128Z,1023.75
2023-02-11T12:42:51.346Z,1023.76
2023-02-11T12:43:55.572Z,1023.80
2023-02-11T12:45:02.898Z,1023.82
2023-02-11T12:46:06.198Z,1023.84
2023-02-11T12:47:10.408Z,1023.84
2023-02-11T12:48:14.678Z,1023.78
2023-02-11T12:49:18.885Z,1023.82
2023-02-11T12:50:23.170Z,1023.76
2023-02-11T12:51:27.364Z,1023.83
2023-02-11T12:52:31.609Z,1023.77
2023-02-11T12:53:35.912Z,1023.76
2023-02-11T12:54:40.008Z,1023.83
2023-02-11T12:55:44.286Z,1023.86
2023-02-11T12:56:48.566Z,1023.89
2023-02-11T12:57:52.763Z,1023.90
2023-02-11T12:58:56.968Z,1023.90